createdAt,value
2022-12-03T00:00:32.792Z,19.40
2022-12-03T00:03:19.931Z,19.00
2022-12-03T00:05:49.460Z,20.10
2022-12-03T00:08:17.775Z,18.30
2022-12-03T00:10:46.079Z,18.00
2022-12-03T00:13:14.309Z,19.30
2022-12-03T00:15:42.477Z,19.10
2022-12-03T00:18:10.946Z,18.00
2022-12-03T00:20:39.149Z,19.50
2022-12-03T00:23:07.415Z,19.80
2022-12-03T00:25:35.897Z,19.50
2022-12-03T00:28:04.189Z,18.90
2022-12-03T00:30:33.621Z,20.00
2022-12-03T00:33:01.973Z,20.10
2022-12-03T00:35:30.564Z,18.60
2022-12-03T00:37:58.638Z,16.90
2022-12-03T00:40:26.916Z,17.80
2022-12-03T00:42:55.072Z,18.60
2022-12-03T00:45:23.551Z,19.20
2022-12-03T00:47:51.815Z,18.10
2022-12-03T00:50:20.001Z,18.60
2022-12-03T00:52:49.868Z,16.90
2022-12-03T00:55:18.309Z,19.10
2022-12-03T00:57:47.171Z,20.10
2022-12-03T01:00:15.867Z,17.20
2022-12-03T01:02:44.074Z,19.00
2022-12-03T01:05:12.425Z,19.60
2022-12-03T01:07:40.915Z,19.10
2022-12-03T01:10:09.452Z,17.60
2022-12-03T01:12:37.889Z,18.70
2022-12-03T01:15:07.403Z,19.70
2022-12-03T01:17:35.749Z,20.80
2022-12-03T01:20:09.801Z,20.30
2022-12-03T01:22:38.274Z,20.00
2022-12-03T01:25:07.520Z,14.70
2022-12-03T01:27:35.664Z,19.70
2022-12-03T01:30:05.389Z,15.30
2022-12-03T01:32:33.973Z,19.20
2022-12-03T01:35:02.152Z,19.70
2022-12-03T01:37:30.362Z,19.60
2022-12-03T01:39:58.926Z,18.10
2022-12-03T01:42:31.153Z,19.50
2022-12-03T01:45:01.019Z,19.80
2022-12-03T01:47:32.354Z,19.70
2022-12-03T01:50:05.803Z,19.40
2022-12-03T01:52:38.305Z,19.00
2022-12-03T01:55:16.366Z,20.80
2022-12-03T01:57:51.697Z,19.50
2022-12-03T02:00:23.790Z,19.60
2022-12-03T02:02:57.980Z,19.10
2022-12-03T02:05:29.041Z,17.60
2022-12-03T02:07:57.914Z,18.50
2022-12-03T02:10:36.260Z,18.10
2022-12-03T02:13:08.333Z,19.50
2022-12-03T02:15:38.506Z,20.80
2022-12-03T02:18:09.060Z,18.80
2022-12-03T02:20:45.735Z,19.30
2022-12-03T02:23:26.226Z,18.40
2022-12-03T02:25:54.531Z,18.00
2022-12-03T02:28:22.721Z,17.30
2022-12-03T02:30:51.329Z,18.10
2022-12-03T02:33:19.637Z,18.70
2022-12-03T02:35:48.646Z,20.40
2022-12-03T02:38:28.161Z,19.10
2022-12-03T02:41:01.204Z,19.80
2022-12-03T02:43:29.549Z,20.00
2022-12-03T02:46:00.427Z,19.20
2022-12-03T02:48:46.490Z,18.80
2022-12-03T02:51:15.121Z,18.50
2022-12-03T02:53:46.153Z,18.80
2022-12-03T02:56:19.409Z,17.60
2022-12-03T02:58:50.193Z,18.40
2022-12-03T03:01:18.698Z,19.10
2022-12-03T03:03:48.875Z,20.20
2022-12-03T03:06:19.571Z,21.10
2022-12-03T03:08:49.031Z,20.40
2022-12-03T03:11:17.404Z,21.00
2022-12-03T03:13:46.119Z,19.50
2022-12-03T03:16:14.773Z,19.60
2022-12-03T03:18:42.972Z,20.80
2022-12-03T03:21:12.709Z,20.80
2022-12-03T03:23:40.824Z,20.40
2022-12-03T03:26:12.400Z,21.80
2022-12-03T03:28:44.964Z,21.20
2022-12-03T03:31:15.404Z,21.90
2022-12-03T03:33:45.738Z,20.80
2022-12-03T03:36:15.413Z,21.40
2022-12-03T03:38:44.273Z,22.40
2022-12-03T03:41:13.566Z,22.10
2022-12-03T03:43:44.387Z,20.70
2022-12-03T03:46:13.833Z,19.00
2022-12-03T03:48:43.944Z,19.40
2022-12-03T03:51:13.471Z,20.50
2022-12-03T03:53:45.090Z,20.80
2022-12-03T03:56:14.800Z,18.80
2022-12-03T03:58:43.345Z,20.70
2022-12-03T04:01:13.418Z,21.40
2022-12-03T04:03:41.824Z,18.80
2022-12-03T04:06:10.520Z,20.10
2022-12-03T04:08:41.076Z,21.20
2022-12-03T04:11:28.510Z,20.00
2022-12-03T04:13:56.641Z,20.60
2022-12-03T04:16:24.937Z,21.10
2022-12-03T04:18:53.269Z,20.00
2022-12-03T04:21:42.199Z,20.60
2022-12-03T04:24:11.578Z,20.30
2022-12-03T04:26:58.561Z,21.30
2022-12-03T04:29:26.678Z,22.70
2022-12-03T04:32:13.698Z,22.70
2022-12-03T04:35:00.433Z,21.30
2022-12-03T04:37:28.629Z,21.50
2022-12-03T04:39:56.812Z,22.70
2022-12-03T04:42:25.449Z,21.50
2022-12-03T04:44:54.116Z,20.20
2022-12-03T04:47:22.719Z,21.80
2022-12-03T04:49:51.738Z,22.60
2022-12-03T04:52:21.097Z,21.90
2022-12-03T04:54:49.772Z,21.60
2022-12-03T04:57:18.465Z,20.40
2022-12-03T04:59:46.735Z,19.30
2022-12-03T05:02:15.366Z,19.50
2022-12-03T05:04:44.756Z,21.50
2022-12-03T05:07:13.426Z,21.00
2022-12-03T05:09:41.578Z,23.20
2022-12-03T05:12:09.906Z,22.30
2022-12-03T05:14:38.319Z,21.60
2022-12-03T05:17:06.560Z,21.00
2022-12-03T05:19:53.498Z,21.40
2022-12-03T05:22:21.852Z,23.20
2022-12-03T05:24:50.235Z,22.40
2022-12-03T05:27:23.407Z,19.80
2022-12-03T05:29:52.431Z,20.80
2022-12-03T05:32:21.004Z,22.40
2022-12-03T05:34:49.358Z,22.30
2022-12-03T05:37:17.649Z,23.30
2022-12-03T05:39:45.767Z,20.00
2022-12-03T05:42:32.742Z,19.60
2022-12-03T05:45:01.215Z,21.50
2022-12-03T05:47:29.479Z,23.30
2022-12-03T05:49:57.682Z,19.80
2022-12-03T05:52:26.302Z,21.20
2022-12-03T05:54:55.979Z,21.10
2022-12-03T05:57:24.526Z,22.10
2022-12-03T05:59:52.759Z,21.70
2022-12-03T06:02:21.351Z,21.80
2022-12-03T06:04:49.986Z,21.00
2022-12-03T06:07:18.309Z,25.70
2022-12-03T06:09:46.496Z,19.90
2022-12-03T06:12:15.000Z,23.30
2022-12-03T06:14:43.212Z,21.90
2022-12-03T06:17:11.710Z,22.30
2022-12-03T06:19:40.004Z,21.90
2022-12-03T06:22:08.216Z,23.10
2022-12-03T06:24:36.422Z,21.30
2022-12-03T06:27:05.494Z,23.70
2022-12-03T06:29:33.830Z,24.30
2022-12-03T06:32:02.696Z,24.10
2022-12-03T06:34:31.330Z,22.90
2022-12-03T06:36:59.604Z,22.10
2022-12-03T06:39:27.788Z,24.90
2022-12-03T06:41:56.155Z,22.90
2022-12-03T06:44:24.364Z,26.20
2022-12-03T06:46:52.871Z,25.70
2022-12-03T06:49:21.331Z,23.10
2022-12-03T06:51:49.507Z,23.60
2022-12-03T06:54:17.704Z,23.50
2022-12-03T06:56:47.275Z,21.60
2022-12-03T06:59:15.545Z,22.30
2022-12-03T07:01:44.503Z,21.50
2022-12-03T07:07:00.560Z,21.00
2022-12-03T07:09:29.355Z,21.20
2022-12-03T07:11:57.775Z,22.60
2022-12-03T07:14:26.119Z,23.40
2022-12-03T07:16:54.440Z,23.30
2022-12-03T07:19:25.252Z,22.80
2022-12-03T07:21:57.890Z,21.30
2022-12-03T07:24:26.609Z,22.30
2022-12-03T07:26:55.072Z,23.80
2022-12-03T07:29:24.060Z,23.20
2022-12-03T07:31:52.478Z,24.50
2022-12-03T07:34:20.761Z,24.80
2022-12-03T07:36:49.269Z,23.70
2022-12-03T07:39:17.559Z,21.50
2022-12-03T07:41:46.040Z,24.00
2022-12-03T07:44:15.017Z,22.00
2022-12-03T07:46:43.469Z,23.10
2022-12-03T07:49:12.494Z,23.30
2022-12-03T07:51:41.083Z,23.40
2022-12-03T07:54:09.529Z,23.60
2022-12-03T07:56:37.953Z,24.80
2022-12-03T07:59:06.504Z,24.30
2022-12-03T08:01:34.935Z,22.90
2022-12-03T08:04:03.558Z,24.10
2022-12-03T08:06:31.708Z,23.50
2022-12-03T08:09:00.127Z,24.40
2022-12-03T08:11:29.559Z,21.50
2022-12-03T08:13:58.368Z,21.40
2022-12-03T08:16:26.620Z,23.00
2022-12-03T08:18:57.674Z,23.40
2022-12-03T08:21:35.231Z,22.40
2022-12-03T08:24:20.042Z,22.30
2022-12-03T08:26:49.703Z,22.60
2022-12-03T08:29:19.980Z,25.20
2022-12-03T08:31:57.310Z,22.80
2022-12-03T08:34:36.043Z,22.00
2022-12-03T08:37:16.240Z,22.60
2022-12-03T08:39:48.467Z,23.20
2022-12-03T08:42:41.693Z,23.60
2022-12-03T08:45:40.046Z,23.00
2022-12-03T08:48:35.097Z,21.20
2022-12-03T08:51:19.251Z,22.00
2022-12-03T08:53:58.120Z,20.00
2022-12-03T08:56:33.399Z,22.10
2022-12-03T08:59:26.900Z,24.60
2022-12-03T09:01:56.502Z,21.10
2022-12-03T09:04:41.781Z,22.50
2022-12-03T09:07:10.208Z,23.50
2022-12-03T09:09:39.115Z,27.40
2022-12-03T09:12:07.709Z,24.20
2022-12-03T09:14:36.129Z,27.70
2022-12-03T09:17:05.056Z,26.90
2022-12-03T09:19:33.614Z,25.60
2022-12-03T09:22:02.271Z,21.30
2022-12-03T09:24:30.881Z,21.90
2022-12-03T09:26:59.307Z,23.70
2022-12-03T09:29:27.990Z,22.40
2022-12-03T09:31:56.543Z,22.10
2022-12-03T09:34:25.523Z,24.00
2022-12-03T09:36:54.200Z,20.70
2022-12-03T09:39:22.717Z,21.50
2022-12-03T09:41:51.186Z,22.50
2022-12-03T09:44:19.874Z,22.80
2022-12-03T09:46:51.558Z,22.50
2022-12-03T09:49:20.297Z,22.00
2022-12-03T09:51:49.123Z,22.00
2022-12-03T09:54:26.746Z,22.20
2022-12-03T09:56:57.778Z,22.30
2022-12-03T09:59:34.461Z,22.90
2022-12-03T10:02:03.867Z,21.90
2022-12-03T10:04:32.645Z,23.10
2022-12-03T10:07:01.586Z,23.30
2022-12-03T10:09:30.806Z,25.20
2022-12-03T10:12:00.141Z,22.60
2022-12-03T10:14:29.200Z,23.80
2022-12-03T10:16:59.823Z,25.10
2022-12-03T10:19:35.964Z,23.90
2022-12-03T10:22:04.523Z,24.50
2022-12-03T10:24:35.436Z,24.20
2022-12-03T10:27:20.263Z,22.80
2022-12-03T10:29:57.541Z,23.20
2022-12-03T10:32:38.586Z,24.60
2022-12-03T10:35:16.861Z,25.10
2022-12-03T10:38:07.833Z,25.40
2022-12-03T10:40:40.713Z,24.70
2022-12-03T10:43:19.901Z,25.40
2022-12-03T10:46:11.553Z,23.70
2022-12-03T10:48:40.770Z,24.80
2022-12-03T10:51:23.000Z,24.50
2022-12-03T10:53:51.515Z,23.70
2022-12-03T10:56:27.713Z,25.00
2022-12-03T10:58:56.661Z,23.80
2022-12-03T11:01:27.335Z,26.70
2022-12-03T11:04:04.404Z,22.30
2022-12-03T11:06:33.292Z,24.70
2022-12-03T11:09:08.760Z,23.90
2022-12-03T11:11:37.835Z,22.50
2022-12-03T11:14:06.323Z,23.30
2022-12-03T11:16:41.009Z,24.70
2022-12-03T11:19:12.437Z,24.90
2022-12-03T11:22:10.488Z,22.40
2022-12-03T11:24:40.819Z,26.10
2022-12-03T11:27:09.624Z,25.20
2022-12-03T11:29:49.857Z,24.50
2022-12-03T11:32:40.712Z,28.50
2022-12-03T11:35:15.772Z,27.20
2022-12-03T11:37:44.275Z,26.70
2022-12-03T11:40:18.724Z,22.20
2022-12-03T11:42:48.698Z,24.60
2022-12-03T11:45:27.572Z,24.90
2022-12-03T11:47:58.949Z,23.20
2022-12-03T11:50:49.734Z,23.80
2022-12-03T11:53:26.055Z,22.70
2022-12-03T11:56:09.375Z,24.40
2022-12-03T12:01:09.071Z,25.30
2022-12-03T12:03:46.907Z,24.30
2022-12-03T12:06:20.689Z,25.00
2022-12-03T12:08:52.678Z,25.90
2022-12-03T12:11:21.212Z,24.50
2022-12-03T12:13:50.940Z,25.00
2022-12-03T12:16:55.833Z,24.50
2022-12-03T12:19:35.731Z,24.50
2022-12-03T12:22:24.391Z,25.20
2022-12-03T12:25:04.743Z,25.80
2022-12-03T12:27:39.712Z,23.90
2022-12-03T12:30:14.031Z,26.10
2022-12-03T12:33:01.372Z,26.60
2022-12-03T12:35:33.166Z,24.20
2022-12-03T12:38:11.159Z,26.90
2022-12-03T12:40:43.272Z,25.90
2022-12-03T12:43:15.218Z,25.60
2022-12-03T12:48:13.316Z,22.10
2022-12-03T12:50:44.061Z,25.30
2022-12-03T12:53:44.698Z,24.90
2022-12-03T12:56:32.075Z,20.20
2022-12-03T12:59:20.866Z,26.20
2022-12-03T13:01:50.335Z,24.70
2022-12-03T13:04:23.906Z,27.30
2022-12-03T13:06:54.295Z,26.40
2022-12-03T13:09:25.575Z,26.30
2022-12-03T13:11:57.404Z,28.10
2022-12-03T13:14:35.377Z,27.40
2022-12-03T13:17:24.673Z,26.80
2022-12-03T13:20:03.680Z,27.90
2022-12-03T13:22:35.419Z,27.10
2022-12-03T13:28:31.335Z,26.30
2022-12-03T13:31:15.422Z,27.60
2022-12-03T13:33:44.051Z,29.40
2022-12-03T13:36:16.395Z,25.40
2022-12-03T13:38:45.316Z,30.20
2022-12-03T13:41:37.077Z,28.30
2022-12-03T13:44:18.406Z,28.90
2022-12-03T13:46:47.260Z,29.60
2022-12-03T13:49:23.527Z,29.10
2022-12-03T13:51:52.123Z,25.90
2022-12-03T13:54:27.991Z,29.00
2022-12-03T13:56:56.361Z,28.70
2022-12-03T13:59:26.314Z,28.50
2022-12-03T14:01:55.054Z,27.00
2022-12-03T14:06:38.764Z,29.00
2022-12-03T14:09:07.447Z,26.60
2022-12-03T14:11:54.671Z,25.60
2022-12-03T14:14:23.565Z,27.10
2022-12-03T14:16:58.196Z,25.70
2022-12-03T14:19:28.327Z,26.30
2022-12-03T14:21:57.098Z,28.30
2022-12-03T14:24:25.672Z,27.40
2022-12-03T14:26:54.299Z,28.50
2022-12-03T14:29:22.745Z,28.00
2022-12-03T14:31:51.283Z,26.10
2022-12-03T14:34:19.815Z,28.20
2022-12-03T14:36:48.225Z,29.70
2022-12-03T14:39:16.637Z,28.00
2022-12-03T14:42:03.814Z,28.80
2022-12-03T14:44:32.264Z,26.30
2022-12-03T14:47:00.721Z,26.90
2022-12-03T14:49:29.328Z,25.00
2022-12-03T14:51:57.828Z,27.50
2022-12-03T14:54:26.357Z,26.30
2022-12-03T14:56:54.896Z,28.20
2022-12-03T14:59:27.587Z,26.80
2022-12-03T15:01:56.908Z,28.90
2022-12-03T15:04:25.548Z,27.70
2022-12-03T15:06:53.956Z,26.80
2022-12-03T15:09:22.428Z,28.00
2022-12-03T15:11:50.742Z,28.50
2022-12-03T15:14:19.196Z,27.80
2022-12-03T15:16:47.655Z,27.90
2022-12-03T15:19:16.304Z,26.40
2022-12-03T15:21:44.744Z,25.60
2022-12-03T15:24:13.321Z,27.70
2022-12-03T15:26:41.692Z,28.80
2022-12-03T15:29:10.238Z,27.80
2022-12-03T15:31:38.632Z,25.50
2022-12-03T15:34:07.069Z,27.40
2022-12-03T15:36:35.558Z,28.90
2022-12-03T15:39:04.198Z,27.80
2022-12-03T15:41:32.876Z,26.40
2022-12-03T15:44:02.331Z,27.70
2022-12-03T15:46:31.682Z,28.90
2022-12-03T15:49:00.373Z,26.60
2022-12-03T15:51:28.856Z,27.80
2022-12-03T15:53:57.321Z,28.40
2022-12-03T15:56:25.727Z,25.70
2022-12-03T15:58:54.440Z,26.30
2022-12-03T16:01:22.924Z,27.30
2022-12-03T16:03:51.369Z,27.90
2022-12-03T16:06:19.838Z,29.00
2022-12-03T16:08:48.490Z,28.60
2022-12-03T16:11:16.861Z,28.20
2022-12-03T16:13:45.285Z,28.20
2022-12-03T16:16:13.751Z,24.90
2022-12-03T16:18:44.103Z,27.30
2022-12-03T16:21:12.421Z,26.50
2022-12-03T16:23:41.001Z,29.70
2022-12-03T16:26:09.386Z,28.30
2022-12-03T16:28:37.677Z,28.90
2022-12-03T16:31:06.253Z,30.70
2022-12-03T16:33:34.845Z,28.70
2022-12-03T16:36:03.889Z,30.00
2022-12-03T16:38:33.845Z,29.40
2022-12-03T16:41:02.517Z,26.90
2022-12-03T16:43:30.910Z,29.90
2022-12-03T16:46:03.293Z,28.60
2022-12-03T16:48:31.769Z,32.00
2022-12-03T16:51:00.141Z,30.70
2022-12-03T16:53:28.444Z,28.50
2022-12-03T16:55:56.908Z,27.30
2022-12-03T16:58:25.430Z,28.60
2022-12-03T17:00:54.357Z,28.90
2022-12-03T17:03:23.206Z,30.20
2022-12-03T17:05:51.554Z,29.30
2022-12-03T17:08:20.395Z,30.60
2022-12-03T17:10:48.747Z,29.80
2022-12-03T17:13:17.110Z,31.00
2022-12-03T17:15:45.429Z,23.80
2022-12-03T17:18:13.793Z,30.30
2022-12-03T17:20:42.548Z,30.50
2022-12-03T17:23:12.018Z,28.90
2022-12-03T17:25:40.304Z,27.70
2022-12-03T17:28:08.889Z,30.50
2022-12-03T17:30:38.784Z,29.40
2022-12-03T17:33:07.144Z,28.40
2022-12-03T17:35:35.472Z,28.50
2022-12-03T17:38:03.847Z,27.70
2022-12-03T17:40:32.252Z,28.30
2022-12-03T17:43:00.627Z,27.90
2022-12-03T17:45:29.105Z,23.80
2022-12-03T17:47:57.472Z,28.10
2022-12-03T17:50:26.300Z,28.50
2022-12-03T17:52:54.612Z,24.00
2022-12-03T17:55:32.094Z,27.80
2022-12-03T17:58:05.291Z,30.00
2022-12-03T18:00:34.255Z,34.90
2022-12-03T18:03:02.613Z,33.30
2022-12-03T18:05:31.066Z,29.30
2022-12-03T18:07:59.593Z,29.30
2022-12-03T18:10:28.106Z,29.90
2022-12-03T18:13:01.421Z,32.80
2022-12-03T18:15:31.098Z,31.00
2022-12-03T18:17:59.927Z,31.10
2022-12-03T18:20:28.540Z,32.40
2022-12-03T18:22:59.466Z,32.20
2022-12-03T18:25:29.307Z,32.90
2022-12-03T18:27:57.924Z,33.70
2022-12-03T18:30:26.530Z,34.30
2022-12-03T18:32:55.070Z,28.60
2022-12-03T18:35:23.822Z,30.10
2022-12-03T18:37:52.146Z,29.70
2022-12-03T18:40:23.707Z,27.80
2022-12-03T18:42:52.330Z,28.60
2022-12-03T18:45:20.766Z,29.40
2022-12-03T18:47:49.751Z,30.10
2022-12-03T18:50:18.187Z,31.40
2022-12-03T18:52:46.607Z,32.70
2022-12-03T18:55:18.860Z,31.20
2022-12-03T18:57:47.218Z,29.10
2022-12-03T19:00:16.216Z,30.50
2022-12-03T19:03:02.622Z,30.80
2022-12-03T19:05:34.551Z,28.60
2022-12-03T19:08:03.937Z,29.40
2022-12-03T19:10:32.611Z,29.20
2022-12-03T19:13:00.994Z,27.40
2022-12-03T19:15:29.337Z,25.60
2022-12-03T19:17:57.752Z,27.80
2022-12-03T19:20:26.260Z,27.50
2022-12-03T19:22:54.633Z,28.60
2022-12-03T19:25:23.331Z,28.10
2022-12-03T19:27:55.303Z,27.80
2022-12-03T19:30:23.963Z,27.10
2022-12-03T19:32:52.591Z,26.10
2022-12-03T19:35:21.626Z,27.30
2022-12-03T19:37:50.304Z,27.80
2022-12-03T19:40:18.778Z,26.80
2022-12-03T19:42:47.308Z,27.50
2022-12-03T19:45:15.691Z,30.10
2022-12-03T19:47:43.966Z,26.70
2022-12-03T19:50:19.416Z,28.40
2022-12-03T19:52:51.424Z,25.90
2022-12-03T19:55:20.172Z,23.40
2022-12-03T19:57:48.920Z,25.40
2022-12-03T20:00:17.878Z,27.10
2022-12-03T20:02:49.229Z,27.70
2022-12-03T20:05:17.634Z,26.10
2022-12-03T20:07:45.966Z,26.80
2022-12-03T20:10:14.649Z,23.90
2022-12-03T20:12:42.982Z,26.50
2022-12-03T20:15:12.367Z,28.50
2022-12-03T20:17:40.611Z,27.10
2022-12-03T20:20:12.394Z,27.20
2022-12-03T20:22:41.109Z,26.90
2022-12-03T20:25:10.277Z,27.70
2022-12-03T20:27:38.538Z,28.70
2022-12-03T20:30:07.462Z,27.50
2022-12-03T20:32:40.556Z,27.50
2022-12-03T20:35:12.310Z,27.60
2022-12-03T20:37:40.629Z,25.40
2022-12-03T20:40:09.631Z,26.00
2022-12-03T20:42:37.969Z,26.30
2022-12-03T20:45:06.787Z,24.80
2022-12-03T20:47:35.015Z,26.50
2022-12-03T20:50:03.542Z,26.80
2022-12-03T20:52:32.052Z,26.70
2022-12-03T20:55:00.869Z,26.30
2022-12-03T20:57:29.320Z,26.20
2022-12-03T20:59:58.849Z,27.80
2022-12-03T21:02:27.369Z,25.20
2022-12-03T21:04:56.094Z,26.20
2022-12-03T21:07:24.455Z,26.20
2022-12-03T21:09:52.974Z,25.80
2022-12-03T21:12:21.572Z,24.50
2022-12-03T21:14:49.961Z,25.40
2022-12-03T21:17:18.551Z,25.10
2022-12-03T21:19:47.476Z,26.90
2022-12-03T21:22:15.665Z,27.00
2022-12-03T21:24:44.175Z,24.40
2022-12-03T21:27:17.096Z,27.00
2022-12-03T21:29:49.942Z,25.40
2022-12-03T21:32:19.151Z,25.80
2022-12-03T21:34:47.893Z,25.10
2022-12-03T21:37:16.143Z,26.40
2022-12-03T21:39:44.364Z,27.10
2022-12-03T21:42:34.686Z,24.90
2022-12-03T21:45:01.132Z,27.40
2022-12-03T21:47:35.089Z,25.60
2022-12-03T21:50:07.869Z,25.30
2022-12-03T21:52:36.216Z,26.20
2022-12-03T21:55:05.139Z,26.40
2022-12-03T21:57:36.694Z,27.90
2022-12-03T22:00:07.931Z,24.10
2022-12-03T22:02:40.251Z,26.10
2022-12-03T22:05:10.522Z,25.60
2022-12-03T22:07:39.666Z,26.00
2022-12-03T22:10:10.120Z,25.00
2022-12-03T22:12:40.890Z,26.00
2022-12-03T22:15:16.543Z,28.70
2022-12-03T22:17:47.688Z,25.90
2022-12-03T22:20:15.986Z,24.70
2022-12-03T22:22:44.186Z,24.70
2022-12-03T22:25:13.516Z,23.10
2022-12-03T22:27:41.993Z,24.80
2022-12-03T22:30:10.398Z,25.30
2022-12-03T22:32:38.609Z,24.10
2022-12-03T22:35:07.146Z,24.30
2022-12-03T22:37:35.365Z,24.90
2022-12-03T22:40:05.044Z,25.10
2022-12-03T22:42:33.298Z,24.10
2022-12-03T22:45:01.550Z,23.90
2022-12-03T22:47:29.838Z,25.00
2022-12-03T22:49:58.138Z,23.70
2022-12-03T22:52:26.405Z,26.00
2022-12-03T22:54:54.633Z,26.10
2022-12-03T22:57:22.837Z,25.50
2022-12-03T22:59:51.046Z,26.80
2022-12-03T23:02:19.464Z,25.60
2022-12-03T23:04:47.772Z,26.30
2022-12-03T23:07:16.028Z,26.00
2022-12-03T23:09:44.172Z,25.80
2022-12-03T23:12:14.729Z,27.10
2022-12-03T23:14:42.914Z,27.20
2022-12-03T23:17:11.144Z,25.60
2022-12-03T23:19:39.364Z,26.70
2022-12-03T23:22:08.138Z,26.60
2022-12-03T23:24:36.946Z,26.60
2022-12-03T23:27:05.187Z,26.10
2022-12-03T23:29:35.113Z,27.10
2022-12-03T23:32:03.467Z,24.20
2022-12-03T23:34:31.701Z,26.10
2022-12-03T23:37:00.059Z,27.30
2022-12-03T23:39:28.263Z,26.60
2022-12-03T23:41:56.914Z,24.40
2022-12-03T23:44:27.856Z,26.40
2022-12-03T23:46:56.109Z,27.10
2022-12-03T23:49:24.361Z,25.80
2022-12-03T23:51:52.610Z,27.70
2022-12-03T23:54:20.769Z,24.70
2022-12-03T23:56:49.113Z,26.40
2022-12-03T23:59:17.394Z,27.40
